createdAt,value
2019-05-11T00:00:56.826Z,1007.30
2019-05-11T00:01:56.738Z,1007.27
2019-05-11T00:02:56.839Z,1007.26
2019-05-11T00:03:56.699Z,1007.29
2019-05-11T00:04:56.748Z,1007.25
2019-05-11T00:05:56.636Z,1007.24
2019-05-11T00:06:56.660Z,1007.19
2019-05-11T00:07:56.585Z,1007.15
2019-05-11T00:08:56.673Z,1007.13
2019-05-11T00:09:58.409Z,1007.10
2019-05-11T00:10:56.575Z,1007.07
2019-05-11T00:11:56.492Z,1007.10
2019-05-11T00:12:56.498Z,1007.07
2019-05-11T00:13:56.438Z,1007.06
2019-05-11T00:14:56.499Z,1007.08
2019-05-11T00:15:56.390Z,1007.10
2019-05-11T00:16:56.349Z,1007.09
2019-05-11T00:17:56.325Z,1007.12
2019-05-11T00:18:56.317Z,1007.09
2019-05-11T00:19:56.283Z,1007.06
2019-05-11T00:20:56.326Z,1007.07
2019-05-11T00:21:56.251Z,1007.07
2019-05-11T00:22:56.202Z,1007.07
2019-05-11T00:23:56.245Z,1007.07
2019-05-11T00:24:56.149Z,1007.09
2019-05-11T00:25:56.158Z,1007.07
2019-05-11T00:26:56.098Z,1007.06
2019-05-11T00:27:56.077Z,1007.08
2019-05-11T00:28:56.076Z,1007.04
2019-05-11T00:29:56.008Z,1007.03
2019-05-11T00:30:56.089Z,1007.04
2019-05-11T00:31:56.032Z,1007.02
2019-05-11T00:32:55.942Z,1007.02
2019-05-11T00:33:55.908Z,1007.01
2019-05-11T00:34:55.915Z,1007.04
2019-05-11T00:35:55.859Z,1007.03
2019-05-11T00:36:55.917Z,1007.03
2019-05-11T00:37:55.824Z,1007.01
2019-05-11T00:38:55.787Z,1007.02
2019-05-11T00:39:55.839Z,1006.99
2019-05-11T00:40:55.732Z,1006.97
2019-05-11T00:41:55.748Z,1007.00
2019-05-11T00:42:55.680Z,1006.98
2019-05-11T00:43:55.765Z,1006.96
2019-05-11T00:44:55.627Z,1006.98
2019-05-11T00:45:55.669Z,1006.94
2019-05-11T00:46:55.580Z,1006.92
2019-05-11T00:47:55.578Z,1006.88
2019-05-11T00:48:55.586Z,1006.84
2019-05-11T00:49:55.499Z,1006.86
2019-05-11T00:50:55.497Z,1006.87
2019-05-11T00:51:55.447Z,1006.85
2019-05-11T00:52:55.513Z,1006.86
2019-05-11T00:53:55.406Z,1006.84
2019-05-11T00:54:55.358Z,1006.85
2019-05-11T00:55:55.429Z,1006.87
2019-05-11T00:56:55.319Z,1006.86
2019-05-11T00:57:55.335Z,1006.85
2019-05-11T00:58:55.278Z,1006.86
2019-05-11T00:59:55.274Z,1006.84
2019-05-11T01:00:55.207Z,1006.84
2019-05-11T01:01:55.257Z,1006.84
2019-05-11T01:02:55.147Z,1006.79
2019-05-11T01:03:55.167Z,1006.83
2019-05-11T01:04:55.129Z,1006.80
2019-05-11T01:05:55.224Z,1006.80
2019-05-11T01:06:55.098Z,1006.77
2019-05-11T01:07:55.100Z,1006.74
2019-05-11T01:08:55.008Z,1006.81
2019-05-11T01:09:54.967Z,1006.82
2019-05-11T01:10:54.949Z,1006.82
2019-05-11T01:11:55.018Z,1006.83
2019-05-11T01:12:54.898Z,1006.81
2019-05-11T01:13:54.917Z,1006.81
2019-05-11T01:14:54.928Z,1006.76
2019-05-11T01:15:54.816Z,1006.75
2019-05-11T01:16:54.875Z,1006.76
2019-05-11T01:18:09.607Z,1006.73
2019-05-11T01:18:54.746Z,1006.71
2019-05-11T01:19:54.719Z,1006.72
2019-05-11T01:20:54.745Z,1006.67
2019-05-11T01:21:54.768Z,1006.68
2019-05-11T01:22:54.637Z,1006.69
2019-05-11T01:23:54.679Z,1006.71
2019-05-11T01:24:54.577Z,1006.70
2019-05-11T01:25:54.547Z,1006.69
2019-05-11T01:26:54.527Z,1006.69
2019-05-11T01:27:54.597Z,1006.67
2019-05-11T01:28:54.465Z,1006.64
2019-05-11T01:29:54.506Z,1006.59
2019-05-11T01:30:54.517Z,1006.57
2019-05-11T01:31:54.398Z,1006.59
2019-05-11T01:32:54.431Z,1006.60
2019-05-11T01:33:54.337Z,1006.59
2019-05-11T01:34:54.336Z,1006.58
2019-05-11T01:35:54.300Z,1006.62
2019-05-11T01:36:54.359Z,1006.61
2019-05-11T01:37:54.238Z,1006.59
2019-05-11T01:38:54.268Z,1006.56
2019-05-11T01:39:54.196Z,1006.55
2019-05-11T01:40:58.766Z,1006.59
2019-05-11T01:41:54.180Z,1006.60
2019-05-11T01:42:54.106Z,1006.59
2019-05-11T01:43:54.188Z,1006.62
2019-05-11T01:44:54.059Z,1006.64
2019-05-11T01:45:54.142Z,1006.63
2019-05-11T01:46:54.107Z,1006.62
2019-05-11T01:47:53.977Z,1006.63
2019-05-11T01:48:54.017Z,1006.58
2019-05-11T01:49:53.927Z,1006.58
2019-05-11T01:50:53.932Z,1006.61
2019-05-11T01:51:53.878Z,1006.63
2019-05-11T01:52:53.940Z,1006.64
2019-05-11T01:53:53.828Z,1006.67
2019-05-11T01:54:53.846Z,1006.66
2019-05-11T01:55:53.769Z,1006.64
2019-05-11T01:56:53.760Z,1006.67
2019-05-11T01:57:53.730Z,1006.59
2019-05-11T01:58:53.775Z,1006.62
2019-05-11T01:59:53.738Z,1006.59
2019-05-11T02:00:53.688Z,1006.60
2019-05-11T02:01:53.607Z,1006.58
2019-05-11T02:02:53.588Z,1006.56
2019-05-11T02:03:53.567Z,1006.56
2019-05-11T02:04:53.605Z,1006.58
2019-05-11T02:05:53.507Z,1006.62
2019-05-11T02:06:53.518Z,1006.65
2019-05-11T02:07:53.468Z,1006.64
2019-05-11T02:08:53.528Z,1006.61
2019-05-11T02:09:53.397Z,1006.61
2019-05-11T02:10:53.447Z,1006.61
2019-05-11T02:11:53.360Z,1006.61
2019-05-11T02:12:53.362Z,1006.65
2019-05-11T02:13:53.308Z,1006.62
2019-05-11T02:14:53.369Z,1006.64
2019-05-11T02:15:53.248Z,1006.66
2019-05-11T02:16:53.278Z,1006.70
2019-05-11T02:17:53.197Z,1006.70
2019-05-11T02:18:53.168Z,1006.73
2019-05-11T02:19:53.149Z,1006.73
2019-05-11T02:20:53.197Z,1006.75
2019-05-11T02:21:53.108Z,1006.75
2019-05-11T02:22:53.157Z,1006.75
2019-05-11T02:23:53.107Z,1006.75
2019-05-11T02:24:53.018Z,1006.70
2019-05-11T02:25:53.030Z,1006.68
2019-05-11T02:26:52.969Z,1006.66
2019-05-11T02:27:53.027Z,1006.66
2019-05-11T02:28:52.914Z,1006.63
2019-05-11T02:29:52.941Z,1006.62
2019-05-11T02:30:52.862Z,1006.57
2019-05-11T02:31:52.848Z,1006.61
2019-05-11T02:32:52.810Z,1006.59
2019-05-11T02:33:52.873Z,1006.59
2019-05-11T02:34:52.751Z,1006.61
2019-05-11T02:35:52.785Z,1006.65
2019-05-11T02:36:52.699Z,1006.60
2019-05-11T02:37:52.791Z,1006.63
2019-05-11T02:38:52.639Z,1006.64
2019-05-11T02:39:52.617Z,1006.63
2019-05-11T02:40:52.599Z,1006.62
2019-05-11T02:41:52.607Z,1006.64
2019-05-11T02:42:52.539Z,1006.58
2019-05-11T02:43:52.628Z,1006.61
2019-05-11T02:44:52.489Z,1006.59
2019-05-11T02:45:52.537Z,1006.62
2019-05-11T02:46:52.438Z,1006.58
2019-05-11T02:47:52.447Z,1006.64
2019-05-11T02:48:52.378Z,1006.64
2019-05-11T02:49:52.458Z,1006.60
2019-05-11T02:50:52.334Z,1006.63
2019-05-11T02:51:52.369Z,1006.64
2019-05-11T02:52:52.278Z,1006.64
2019-05-11T02:53:52.279Z,1006.59
2019-05-11T02:54:52.229Z,1006.64
2019-05-11T02:55:52.209Z,1006.61
2019-05-11T02:56:52.168Z,1006.64
2019-05-11T02:57:52.198Z,1006.63
2019-05-11T02:58:52.135Z,1006.64
2019-05-11T02:59:52.108Z,1006.65
2019-05-11T03:00:52.067Z,1006.66
2019-05-11T03:01:52.116Z,1006.66
2019-05-11T03:02:52.029Z,1006.66
2019-05-11T03:03:52.030Z,1006.63
2019-05-11T03:04:51.980Z,1006.62
2019-05-11T03:05:52.045Z,1006.61
2019-05-11T03:06:51.914Z,1006.60
2019-05-11T03:07:51.951Z,1006.63
2019-05-11T03:08:51.870Z,1006.63
2019-05-11T03:09:51.858Z,1006.60
2019-05-11T03:10:51.808Z,1006.64
2019-05-11T03:11:55.670Z,1006.66
2019-05-11T03:12:51.781Z,1006.62
2019-05-11T03:13:51.730Z,1006.68
2019-05-11T03:14:51.788Z,1006.70
2019-05-11T03:15:51.678Z,1006.71
2019-05-11T03:16:51.660Z,1006.75
2019-05-11T03:17:51.618Z,1006.73
2019-05-11T03:18:51.724Z,1006.68
2019-05-11T03:19:51.571Z,1006.64
2019-05-11T03:20:51.629Z,1006.65
2019-05-11T03:21:51.517Z,1006.61
2019-05-11T03:22:51.541Z,1006.63
2019-05-11T03:23:51.471Z,1006.65
2019-05-11T03:24:51.548Z,1006.66
2019-05-11T03:25:51.417Z,1006.66
2019-05-11T03:26:51.461Z,1006.68
2019-05-11T03:27:51.470Z,1006.66
2019-05-11T03:28:51.338Z,1006.66
2019-05-11T03:29:51.388Z,1006.67
2019-05-11T03:30:51.310Z,1006.74
2019-05-11T03:31:51.289Z,1006.76
2019-05-11T03:32:51.292Z,1006.74
2019-05-11T03:33:51.213Z,1006.72
2019-05-11T03:34:51.209Z,1006.75
2019-05-11T03:35:51.149Z,1006.76
2019-05-11T03:36:51.219Z,1006.77
2019-05-11T03:37:51.108Z,1006.69
2019-05-11T03:38:51.129Z,1006.73
2019-05-11T03:39:51.050Z,1006.70
2019-05-11T03:40:51.042Z,1006.73
2019-05-11T03:41:50.996Z,1006.72
2019-05-11T03:42:51.051Z,1006.76
2019-05-11T03:43:50.949Z,1006.78
2019-05-11T03:44:50.963Z,1006.80
2019-05-11T03:45:50.889Z,1006.82
2019-05-11T03:46:50.980Z,1006.79
2019-05-11T03:47:50.850Z,1006.80
2019-05-11T03:48:50.821Z,1006.80
2019-05-11T03:49:50.789Z,1006.77
2019-05-11T03:50:50.789Z,1006.79
2019-05-11T03:51:50.728Z,1006.78
2019-05-11T03:52:50.890Z,1006.71
2019-05-11T03:53:50.689Z,1006.73
2019-05-11T03:54:50.754Z,1006.69
2019-05-11T03:55:50.640Z,1006.69
2019-05-11T03:56:50.628Z,1006.64
2019-05-11T03:57:50.568Z,1006.65
2019-05-11T03:58:50.655Z,1006.67
2019-05-11T03:59:50.533Z,1006.61
2019-05-11T04:00:50.552Z,1006.57
2019-05-11T04:01:50.470Z,1006.57
2019-05-11T04:02:50.462Z,1006.56
2019-05-11T04:03:50.419Z,1006.59
2019-05-11T04:04:50.400Z,1006.59
2019-05-11T04:05:50.515Z,1006.58
2019-05-11T04:06:50.338Z,1006.59
2019-05-11T04:07:50.409Z,1006.52
2019-05-11T04:08:50.286Z,1006.52
2019-05-11T04:09:50.260Z,1006.52
2019-05-11T04:10:50.236Z,1006.50
2019-05-11T04:11:50.309Z,1006.49
2019-05-11T04:12:50.176Z,1006.51
2019-05-11T04:13:50.219Z,1006.53
2019-05-11T04:14:50.210Z,1006.47
2019-05-11T04:15:50.099Z,1006.49
2019-05-11T04:16:50.148Z,1006.44
2019-05-11T04:17:50.050Z,1006.45
2019-05-11T04:18:50.048Z,1006.47
2019-05-11T04:19:49.999Z,1006.49
2019-05-11T04:20:49.976Z,1006.45
2019-05-11T04:21:49.969Z,1006.48
2019-05-11T04:22:49.925Z,1006.49
2019-05-11T04:23:49.979Z,1006.50
2019-05-11T04:24:49.866Z,1006.51
2019-05-11T04:25:49.838Z,1006.54
2019-05-11T04:26:49.807Z,1006.56
2019-05-11T04:27:49.810Z,1006.59
2019-05-11T04:28:49.758Z,1006.61
2019-05-11T04:29:49.813Z,1006.65
2019-05-11T04:30:49.718Z,1006.65
2019-05-11T04:31:49.727Z,1006.65
2019-05-11T04:32:49.647Z,1006.70
2019-05-11T04:33:49.727Z,1006.71
2019-05-11T04:34:49.601Z,1006.72
2019-05-11T04:35:49.676Z,1006.79
2019-05-11T04:42:21.181Z,1006.79
2019-05-11T04:43:21.118Z,1006.76
2019-05-11T04:45:25.189Z,1006.72
2019-05-11T04:46:25.076Z,1006.76
2019-05-11T04:48:29.026Z,1006.71
2019-05-11T04:49:29.047Z,1006.69
2019-05-11T04:51:33.087Z,1006.63
2019-05-11T04:52:33.057Z,1006.60
2019-05-11T04:54:36.999Z,1006.65
2019-05-11T04:55:36.915Z,1006.67
2019-05-11T04:57:40.956Z,1006.68
2019-05-11T04:58:40.917Z,1006.67
2019-05-11T05:00:33.857Z,1006.69
2019-05-11T05:01:33.766Z,1006.71
2019-05-11T05:03:41.179Z,1006.76
2019-05-11T05:04:37.791Z,1006.77
2019-05-11T05:06:41.886Z,1006.75
2019-05-11T05:07:48.166Z,1006.76
2019-05-11T05:09:45.915Z,1006.73
2019-05-11T05:10:45.877Z,1006.72
2019-05-11T05:12:51.493Z,1006.75
2019-05-11T05:13:53.108Z,1006.72
2019-05-11T05:15:53.929Z,1006.76
2019-05-11T05:16:53.836Z,1006.74
2019-05-11T05:18:59.320Z,1006.71
2019-05-11T05:19:59.275Z,1006.74
2019-05-11T05:22:03.345Z,1006.71
2019-05-11T05:23:03.433Z,1006.70
2019-05-11T05:25:07.398Z,1006.74
2019-05-11T05:26:07.309Z,1006.75
2019-05-11T05:28:11.421Z,1006.77
2019-05-11T05:29:11.318Z,1006.76
2019-05-11T05:31:15.367Z,1006.76
2019-05-11T05:32:15.399Z,1006.73
2019-05-11T05:34:19.331Z,1006.76
2019-05-11T05:35:19.296Z,1006.79
2019-05-11T05:37:23.338Z,1006.82
2019-05-11T05:38:23.247Z,1006.81
2019-05-11T05:40:17.116Z,1006.85
2019-05-11T05:41:17.017Z,1006.88
2019-05-11T05:43:27.074Z,1006.87
2019-05-11T05:44:21.932Z,1006.96
2019-05-11T05:46:25.956Z,1006.94
2019-05-11T05:47:25.878Z,1006.93
2019-05-11T05:49:29.962Z,1006.97
2019-05-11T05:50:29.872Z,1006.93
2019-05-11T05:52:34.798Z,1006.98
2019-05-11T05:53:34.710Z,1007.01
2019-05-11T05:55:39.635Z,1007.05
2019-05-11T05:56:39.592Z,1007.05
2019-05-11T05:58:43.548Z,1007.12
2019-05-11T05:59:43.457Z,1007.12
2019-05-11T06:01:48.328Z,1007.14
2019-05-11T06:02:48.277Z,1007.18
2019-05-11T06:04:52.300Z,1007.23
2019-05-11T06:05:52.198Z,1007.22
2019-05-11T06:07:56.308Z,1007.27
2019-05-11T06:08:56.213Z,1007.29
2019-05-11T06:10:49.357Z,1007.33
2019-05-11T06:13:44.658Z,1007.35
2019-05-11T06:14:29.816Z,1007.38
2019-05-11T06:16:33.982Z,1007.36
2019-05-11T06:17:34.657Z,1007.33
2019-05-11T06:19:37.908Z,1007.37
2019-05-11T06:20:37.713Z,1007.38
2019-05-11T06:22:42.044Z,1007.43
2019-05-11T06:23:41.718Z,1007.43
2019-05-11T06:25:45.767Z,1007.41
2019-05-11T06:26:45.912Z,1007.39
2019-05-11T06:28:49.877Z,1007.35
2019-05-11T06:29:49.747Z,1007.37
2019-05-11T06:31:53.968Z,1007.41
2019-05-11T06:32:53.774Z,1007.39
2019-05-11T06:34:58.001Z,1007.38
2019-05-11T06:35:57.778Z,1007.39
2019-05-11T06:38:02.008Z,1007.41
2019-05-11T06:39:01.799Z,1007.37
2019-05-11T06:41:06.007Z,1007.44
2019-05-11T06:42:05.806Z,1007.41
2019-05-11T06:44:09.868Z,1007.47
2019-05-11T06:45:09.817Z,1007.47
2019-05-11T06:47:14.037Z,1007.40
2019-05-11T06:48:13.848Z,1007.39
2019-05-11T06:50:07.010Z,1007.39
2019-05-11T06:51:10.961Z,1007.36
2019-05-11T06:53:11.517Z,1007.39
2019-05-11T06:54:11.306Z,1007.40
2019-05-11T06:56:16.436Z,1007.37
2019-05-11T06:57:16.159Z,1007.39
2019-05-11T06:59:20.216Z,1007.39
2019-05-11T07:00:20.202Z,1007.42
2019-05-11T07:02:24.543Z,1007.49
2019-05-11T07:03:24.247Z,1007.50
2019-05-11T07:05:29.969Z,1007.58
2019-05-11T07:06:30.886Z,1007.61
2019-05-11T07:08:34.089Z,1007.63
2019-05-11T07:09:33.765Z,1007.65
2019-05-11T07:11:38.081Z,1007.64
2019-05-11T07:12:37.906Z,1007.61
2019-05-11T07:16:40.944Z,1007.69
2019-05-11T07:24:47.239Z,1007.75
2019-05-11T07:25:00.320Z,1007.74
2019-05-11T07:28:49.460Z,1007.82
2019-05-11T07:29:48.374Z,1007.78
2019-05-11T07:31:52.584Z,1007.79
2019-05-11T07:32:52.283Z,1007.77
2019-05-11T07:34:57.729Z,1007.76
2019-05-11T07:35:58.312Z,1007.77
2019-05-11T07:38:00.348Z,1007.81
2019-05-11T07:39:00.203Z,1007.79
2019-05-11T07:41:04.240Z,1007.82
2019-05-11T07:42:04.147Z,1007.86
2019-05-11T07:44:10.048Z,1007.83
2019-05-11T07:45:08.918Z,1007.84
2019-05-11T07:47:11.969Z,1007.84
2019-05-11T07:48:12.055Z,1007.89
2019-05-11T07:50:04.978Z,1007.86
2019-05-11T07:51:04.823Z,1007.88
2019-05-11T07:53:08.835Z,1007.93
2019-05-11T07:54:08.722Z,1007.94
2019-05-11T07:56:12.745Z,1007.97
2019-05-11T07:57:12.619Z,1007.92
2019-05-11T07:59:18.384Z,1008.02
2019-05-11T08:00:18.623Z,1008.02
2019-05-11T08:02:20.533Z,1008.09
2019-05-11T08:03:20.423Z,1008.11
2019-05-11T08:05:24.486Z,1008.15
2019-05-11T08:06:24.333Z,1008.14
2019-05-11T08:08:28.491Z,1008.19
2019-05-11T08:09:28.256Z,1008.19
2019-05-11T08:10:28.351Z,1008.22
2019-05-11T08:11:31.368Z,1008.24
2019-05-11T08:12:28.667Z,1008.26
2019-05-11T08:13:28.412Z,1008.31
2019-05-11T08:14:28.895Z,1008.29
2019-05-11T08:15:28.464Z,1008.29
2019-05-11T08:16:28.729Z,1008.30
2019-05-11T08:17:28.596Z,1008.33
2019-05-11T08:18:28.403Z,1008.36
2019-05-11T08:19:28.409Z,1008.34
2019-05-11T08:20:28.260Z,1008.32
2019-05-11T08:21:28.536Z,1008.35
2019-05-11T08:22:28.530Z,1008.35
2019-05-11T08:23:28.640Z,1008.36
2019-05-11T08:24:28.551Z,1008.40
2019-05-11T08:25:28.703Z,1008.38
2019-05-11T08:26:28.388Z,1008.39
2019-05-11T08:27:28.580Z,1008.39
2019-05-11T08:28:28.802Z,1008.38
2019-05-11T08:29:28.062Z,1008.43
2019-05-11T08:30:27.911Z,1008.41
2019-05-11T08:31:28.091Z,1008.42
2019-05-11T08:32:28.715Z,1008.46
2019-05-11T08:33:28.410Z,1008.45
2019-05-11T08:34:28.604Z,1008.46
2019-05-11T08:35:31.140Z,1008.52
2019-05-11T08:36:28.912Z,1008.52
2019-05-11T08:37:28.374Z,1008.55
2019-05-11T08:38:28.526Z,1008.57
2019-05-11T08:39:28.835Z,1008.61
2019-05-11T08:40:28.838Z,1008.60
2019-05-11T08:41:28.119Z,1008.64
2019-05-11T08:42:28.879Z,1008.67
2019-05-11T08:43:28.489Z,1008.68
2019-05-11T08:44:28.713Z,1008.70
2019-05-11T08:45:28.096Z,1008.69
2019-05-11T08:46:28.071Z,1008.71
2019-05-11T08:47:28.323Z,1008.70
2019-05-11T08:48:28.287Z,1008.69
2019-05-11T08:49:28.747Z,1008.65
2019-05-11T08:50:27.972Z,1008.70
2019-05-11T08:51:28.120Z,1008.69
2019-05-11T08:52:28.042Z,1008.73
2019-05-11T08:53:28.418Z,1008.74
2019-05-11T08:54:28.838Z,1008.72
2019-05-11T08:55:28.965Z,1008.75
2019-05-11T08:56:28.878Z,1008.74
2019-05-11T08:57:28.561Z,1008.81
2019-05-11T08:58:27.800Z,1008.81
2019-05-11T08:59:27.838Z,1008.80
2019-05-11T09:00:28.348Z,1008.85
2019-05-11T09:01:28.656Z,1008.88
2019-05-11T09:02:27.796Z,1008.92
2019-05-11T09:03:28.436Z,1008.85
2019-05-11T09:04:28.852Z,1008.91
2019-05-11T09:05:28.048Z,1008.95
2019-05-11T09:06:28.404Z,1008.94
2019-05-11T09:07:27.830Z,1008.94
2019-05-11T09:08:28.228Z,1009.01
2019-05-11T09:09:28.618Z,1008.98
2019-05-11T09:10:28.137Z,1008.98
2019-05-11T09:11:28.388Z,1009.01
2019-05-11T09:12:28.790Z,1009.05
2019-05-11T09:13:27.882Z,1009.06
2019-05-11T09:14:28.325Z,1009.10
2019-05-11T09:15:36.394Z,1009.10
2019-05-11T09:16:28.917Z,1009.09
2019-05-11T09:17:28.695Z,1009.14
2019-05-11T09:18:27.976Z,1009.14
2019-05-11T09:19:28.520Z,1009.18
2019-05-11T09:20:28.506Z,1009.16
2019-05-11T09:21:33.593Z,1009.18
2019-05-11T09:22:28.287Z,1009.15
2019-05-11T09:23:34.560Z,1009.20
2019-05-11T09:24:28.201Z,1009.24
2019-05-11T09:25:27.754Z,1009.20
2019-05-11T09:26:28.458Z,1009.25
2019-05-11T09:27:28.454Z,1009.25
2019-05-11T09:28:26.407Z,1009.19
2019-05-11T09:29:28.154Z,1009.22
2019-05-11T09:30:28.639Z,1009.22
2019-05-11T09:31:27.942Z,1009.24
2019-05-11T09:32:28.346Z,1009.24
2019-05-11T09:33:28.180Z,1009.22
2019-05-11T09:34:28.611Z,1009.27
2019-05-11T09:35:26.306Z,1009.26
2019-05-11T09:36:28.324Z,1009.27
2019-05-11T09:37:27.746Z,1009.28
2019-05-11T09:38:27.730Z,1009.33
2019-05-11T09:39:28.043Z,1009.40
2019-05-11T09:40:28.228Z,1009.42
2019-05-11T09:41:26.099Z,1009.39
2019-05-11T09:42:28.413Z,1009.45
2019-05-11T09:43:28.192Z,1009.42
2019-05-11T09:44:25.992Z,1009.43
2019-05-11T09:45:27.811Z,1009.41
2019-05-11T09:46:27.885Z,1009.48
2019-05-11T09:47:27.967Z,1009.50
2019-05-11T09:48:28.238Z,1009.49
2019-05-11T09:49:43.271Z,1009.54
2019-05-11T09:50:27.735Z,1009.58
2019-05-11T09:51:25.920Z,1009.61
2019-05-11T09:52:27.587Z,1009.59
2019-05-11T09:53:28.167Z,1009.67
2019-05-11T09:54:25.760Z,1009.63
2019-05-11T09:55:28.101Z,1009.63
2019-05-11T09:56:25.777Z,1009.64
2019-05-11T09:57:27.619Z,1009.66
2019-05-11T09:58:27.922Z,1009.68
2019-05-11T09:59:28.122Z,1009.70
2019-05-11T10:00:28.094Z,1009.71
2019-05-11T10:01:25.630Z,1009.76
2019-05-11T10:02:27.411Z,1009.76
2019-05-11T10:03:27.988Z,1009.75
2019-05-11T10:04:25.648Z,1009.75
2019-05-11T10:05:25.510Z,1009.77
2019-05-11T10:06:28.050Z,1009.82
2019-05-11T10:07:25.459Z,1009.82
2019-05-11T10:08:25.414Z,1009.80
2019-05-11T10:09:27.789Z,1009.73
2019-05-11T10:10:25.498Z,1009.76
2019-05-11T10:11:25.377Z,1009.79
2019-05-11T10:12:25.410Z,1009.78
2019-05-11T10:13:27.685Z,1009.76
2019-05-11T10:14:25.425Z,1009.76
2019-05-11T10:15:25.276Z,1009.77
2019-05-11T10:16:25.365Z,1009.80
2019-05-11T10:17:25.247Z,1009.82
2019-05-11T10:18:25.214Z,1009.82
2019-05-11T10:19:25.251Z,1009.83
2019-05-11T10:20:25.166Z,1009.80
2019-05-11T10:21:25.269Z,1009.85
2019-05-11T10:22:25.127Z,1009.84
2019-05-11T10:23:25.107Z,1009.85
2019-05-11T10:24:25.081Z,1009.91
2019-05-11T10:25:25.178Z,1009.96
2019-05-11T10:26:25.038Z,1010.00
2019-05-11T10:27:25.103Z,1009.99
2019-05-11T10:28:24.986Z,1010.08
2019-05-11T10:29:25.007Z,1010.05
2019-05-11T10:30:24.945Z,1009.98
2019-05-11T10:31:25.017Z,1010.03
2019-05-11T10:32:24.907Z,1009.98
2019-05-11T10:33:24.888Z,1010.01
2019-05-11T10:34:24.867Z,1010.13
2019-05-11T10:35:24.948Z,1010.03
2019-05-11T10:36:24.824Z,1010.09
2019-05-11T10:37:24.888Z,1010.12
2019-05-11T10:38:24.812Z,1010.11
2019-05-11T10:39:24.783Z,1010.16
2019-05-11T10:40:24.730Z,1010.09
2019-05-11T10:41:24.779Z,1010.11
2019-05-11T10:42:24.707Z,1010.19
2019-05-11T10:43:24.698Z,1010.15
2019-05-11T10:44:24.637Z,1010.21
2019-05-11T10:45:24.707Z,1010.20
2019-05-11T10:46:24.595Z,1010.19
2019-05-11T10:47:24.619Z,1010.18
2019-05-11T10:48:24.566Z,1010.15
2019-05-11T10:49:24.537Z,1010.28
2019-05-11T10:50:24.518Z,1010.24
2019-05-11T10:51:24.546Z,1010.27
2019-05-11T10:52:24.466Z,1010.24
2019-05-11T10:53:24.556Z,1010.29
2019-05-11T10:54:24.484Z,1010.31
2019-05-11T10:55:24.418Z,1010.33
2019-05-11T10:56:24.485Z,1010.36
2019-05-11T10:57:24.366Z,1010.27
2019-05-11T10:58:24.387Z,1010.33
2019-05-11T10:59:24.316Z,1010.26
2019-05-11T11:00:24.408Z,1010.32
2019-05-11T11:01:24.289Z,1010.40
2019-05-11T11:02:24.322Z,1010.31
2019-05-11T11:03:24.243Z,1010.32
2019-05-11T11:04:24.335Z,1010.28
2019-05-11T11:05:24.214Z,1010.29
2019-05-11T11:06:24.237Z,1010.31
2019-05-11T11:07:24.158Z,1010.25
2019-05-11T11:08:24.172Z,1010.29
2019-05-11T11:09:24.107Z,1010.26
2019-05-11T11:10:24.086Z,1010.25
2019-05-11T11:11:24.070Z,1010.30
2019-05-11T11:12:24.076Z,1010.27
2019-05-11T11:13:24.027Z,1010.32
2019-05-11T11:14:24.100Z,1010.34
2019-05-11T11:15:24.000Z,1010.45
2019-05-11T11:16:35.840Z,1010.47
2019-05-11T11:17:23.948Z,1010.46
2019-05-11T11:18:24.016Z,1010.55
2019-05-11T11:19:23.907Z,1010.50
2019-05-11T11:20:23.927Z,1010.46
2019-05-11T11:21:23.888Z,1010.50
2019-05-11T11:22:37.055Z,1010.57
2019-05-11T11:23:23.840Z,1010.48
2019-05-11T11:24:23.889Z,1010.58
2019-05-11T11:25:23.777Z,1010.55
2019-05-11T11:26:23.758Z,1010.51
2019-05-11T11:27:23.739Z,1010.58
2019-05-11T11:28:23.779Z,1010.48
2019-05-11T11:29:23.688Z,1010.56
2019-05-11T11:30:23.710Z,1010.52
2019-05-11T11:31:23.697Z,1010.53
2019-05-11T11:32:23.633Z,1010.58
2019-05-11T11:33:23.719Z,1010.55
2019-05-11T11:34:23.587Z,1010.56
2019-05-11T11:35:23.628Z,1010.61
2019-05-11T11:36:23.538Z,1010.64
2019-05-11T11:37:23.538Z,1010.62
2019-05-11T11:38:23.498Z,1010.58
2019-05-11T11:39:23.569Z,1010.62
2019-05-11T11:40:23.469Z,1010.72
2019-05-11T11:41:23.467Z,1010.77
2019-05-11T11:42:23.420Z,1010.73
2019-05-11T11:43:23.481Z,1010.76
2019-05-11T11:44:23.367Z,1010.64
2019-05-11T11:45:23.390Z,1010.61
2019-05-11T11:46:23.329Z,1010.67
2019-05-11T11:47:23.308Z,1010.72
2019-05-11T11:48:23.285Z,1010.74
2019-05-11T11:49:23.309Z,1010.80
2019-05-11T11:50:23.247Z,1010.77
2019-05-11T11:51:23.330Z,1010.77
2019-05-11T11:52:23.241Z,1010.80
2019-05-11T11:53:23.189Z,1010.79
2019-05-11T11:54:24.169Z,1010.83
2019-05-11T11:55:23.152Z,1010.81
2019-05-11T11:56:23.173Z,1010.90
2019-05-11T11:57:23.095Z,1010.89
2019-05-11T11:58:24.042Z,1010.93
2019-05-11T11:59:23.047Z,1010.93
2019-05-11T12:00:23.088Z,1010.98
2019-05-11T12:01:23.022Z,1010.97
2019-05-11T12:02:23.106Z,1011.01
2019-05-11T12:03:23.011Z,1011.02
2019-05-11T12:04:22.947Z,1010.99
2019-05-11T12:05:23.028Z,1011.00
2019-05-11T12:06:22.908Z,1011.08
2019-05-11T12:07:22.938Z,1011.15
2019-05-11T12:08:22.939Z,1011.07
2019-05-11T12:09:22.847Z,1011.05
2019-05-11T12:10:22.857Z,1011.06
2019-05-11T12:11:22.798Z,1011.05
2019-05-11T12:12:22.878Z,1011.09
2019-05-11T12:13:22.758Z,1011.14
2019-05-11T12:14:22.778Z,1011.16
2019-05-11T12:15:22.732Z,1011.19
2019-05-11T12:16:22.796Z,1011.15
2019-05-11T12:17:22.689Z,1011.12
2019-05-11T12:18:22.718Z,1011.21
2019-05-11T12:19:22.642Z,1011.25
2019-05-11T12:20:22.715Z,1011.25
2019-05-11T12:21:22.596Z,1011.21
2019-05-11T12:22:22.627Z,1011.26
2019-05-11T12:23:22.546Z,1011.33
2019-05-11T12:24:22.536Z,1011.34
2019-05-11T12:25:22.551Z,1011.21
2019-05-11T12:26:22.499Z,1011.32
2019-05-11T12:27:22.568Z,1011.32
2019-05-11T12:28:22.461Z,1011.34
2019-05-11T12:29:22.434Z,1011.41
2019-05-11T12:30:22.418Z,1011.34
2019-05-11T12:31:22.499Z,1011.41
2019-05-11T12:32:22.366Z,1011.45
2019-05-11T12:33:22.407Z,1011.41
2019-05-11T12:34:22.329Z,1011.48
2019-05-11T12:35:22.416Z,1011.43
2019-05-11T12:36:22.289Z,1011.43
2019-05-11T12:37:22.428Z,1011.56
2019-05-11T12:38:22.253Z,1011.57
2019-05-11T12:39:22.235Z,1011.61
2019-05-11T12:40:22.206Z,1011.54
2019-05-11T12:41:22.256Z,1011.51
2019-05-11T12:42:22.174Z,1011.51
2019-05-11T12:43:22.585Z,1011.61
2019-05-11T12:44:22.128Z,1011.61
2019-05-11T12:45:22.095Z,1011.63
2019-05-11T12:46:22.186Z,1011.65
2019-05-11T12:47:24.990Z,1011.72
2019-05-11T12:48:22.097Z,1011.71
2019-05-11T12:49:22.017Z,1011.67
2019-05-11T12:50:21.998Z,1011.77
2019-05-11T12:51:22.016Z,1011.80
2019-05-11T12:52:21.946Z,1011.79
2019-05-11T12:53:22.036Z,1011.83
2019-05-11T12:54:21.916Z,1011.89
2019-05-11T12:55:21.897Z,1011.85
2019-05-11T12:56:21.869Z,1011.89
2019-05-11T12:57:21.956Z,1011.84
2019-05-11T12:58:21.846Z,1011.91
2019-05-11T12:59:21.879Z,1011.94
2019-05-11T13:00:21.800Z,1011.87
2019-05-11T13:01:21.786Z,1011.92
2019-05-11T13:02:21.751Z,1011.94
2019-05-11T13:03:21.796Z,1011.98
2019-05-11T13:04:21.720Z,1012.01
2019-05-11T13:05:21.704Z,1011.96
2019-05-11T13:06:21.656Z,1012.00
2019-05-11T13:07:21.726Z,1012.10
2019-05-11T13:08:21.626Z,1012.05
2019-05-11T13:09:21.646Z,1012.10
2019-05-11T13:10:21.570Z,1012.14
2019-05-11T13:11:21.548Z,1012.13
2019-05-11T13:12:21.557Z,1012.13
2019-05-11T13:13:21.507Z,1012.14
2019-05-11T13:14:21.566Z,1012.16
2019-05-11T13:15:21.459Z,1012.20
2019-05-11T13:16:21.448Z,1012.26
2019-05-11T13:17:34.202Z,1012.25
2019-05-11T13:18:21.396Z,1012.26
2019-05-11T13:19:21.419Z,1012.39
2019-05-11T13:20:21.360Z,1012.38
2019-05-11T13:21:21.348Z,1012.44
2019-05-11T13:22:21.308Z,1012.42
2019-05-11T13:23:21.324Z,1012.47
2019-05-11T13:24:21.290Z,1012.38
2019-05-11T13:25:21.347Z,1012.43
2019-05-11T13:26:21.240Z,1012.42
2019-05-11T13:27:21.282Z,1012.34
2019-05-11T13:28:21.191Z,1012.42
2019-05-11T13:29:21.278Z,1012.41